createdAt,value
2023-04-19T00:01:44.234Z,101562.16
2023-04-19T00:04:15.324Z,101563.72
2023-04-19T00:06:43.568Z,101572.00
2023-04-19T00:09:11.325Z,101538.13
2023-04-19T00:11:39.412Z,101525.44
2023-04-19T00:14:07.420Z,101543.22
2023-04-19T00:16:35.311Z,101535.19
2023-04-19T00:19:03.164Z,101521.19
2023-04-19T00:21:32.429Z,101557.97
2023-04-19T00:24:00.250Z,101507.44
2023-04-19T00:26:28.021Z,101556.75
2023-04-19T00:28:57.416Z,101555.00
2023-04-19T00:31:25.326Z,101543.31
2023-04-19T00:33:53.422Z,101549.34
2023-04-19T00:36:21.318Z,101539.22
2023-04-19T00:38:50.716Z,101529.59
2023-04-19T00:41:18.763Z,101539.28
2023-04-19T00:43:46.606Z,101527.56
2023-04-19T00:46:16.242Z,101542.16
2023-04-19T00:48:44.150Z,101533.59
2023-04-19T00:51:14.025Z,101512.19
2023-04-19T00:53:42.428Z,101531.75
2023-04-19T00:56:12.463Z,101526.38
2023-04-19T00:58:40.387Z,101524.91
2023-04-19T01:01:08.275Z,101525.75
2023-04-19T01:03:37.121Z,101536.34
2023-04-19T01:06:05.383Z,101526.38
2023-04-19T01:08:33.762Z,101541.94
2023-04-19T01:11:01.688Z,101515.03
2023-04-19T01:13:30.864Z,101532.84
2023-04-19T01:15:58.939Z,101496.66
2023-04-19T01:18:32.655Z,101521.41
2023-04-19T01:21:00.696Z,101516.81
2023-04-19T01:23:29.876Z,101518.75
2023-04-19T01:25:57.743Z,101509.06
2023-04-19T01:28:25.681Z,101476.91
2023-04-19T01:30:54.246Z,101528.44
2023-04-19T01:33:22.444Z,101522.16
2023-04-19T01:35:50.991Z,101528.69
2023-04-19T01:38:18.927Z,101525.00
2023-04-19T01:40:48.225Z,101511.50
2023-04-19T01:43:19.528Z,101515.78
2023-04-19T01:45:47.322Z,101509.53
2023-04-19T01:48:15.427Z,101267.38
2023-04-19T01:50:43.277Z,101507.72
2023-04-19T01:53:12.071Z,101492.63
2023-04-19T01:55:39.940Z,101477.16
2023-04-19T01:58:09.849Z,101494.50
2023-04-19T02:00:37.676Z,101461.75
2023-04-19T02:03:05.797Z,101440.66
2023-04-19T02:05:33.724Z,101478.78
2023-04-19T02:08:02.388Z,101481.25
2023-04-19T02:10:31.817Z,101494.03
2023-04-19T02:12:59.935Z,101498.63
2023-04-19T02:15:30.450Z,101502.41
2023-04-19T02:18:00.108Z,101495.38
2023-04-19T02:20:28.080Z,101483.91
2023-04-19T02:22:56.509Z,101512.38
2023-04-19T02:25:24.385Z,101507.09
2023-04-19T02:27:53.707Z,101515.94
2023-04-19T02:30:21.854Z,101514.41
2023-04-19T02:32:51.205Z,101513.66
2023-04-19T02:35:19.053Z,101516.38
2023-04-19T02:37:46.900Z,101512.75
2023-04-19T02:40:14.883Z,101525.91
2023-04-19T02:42:42.804Z,101507.44
2023-04-19T02:45:11.081Z,101526.06
2023-04-19T02:47:39.038Z,101466.09
2023-04-19T02:50:09.628Z,101519.94
2023-04-19T02:52:44.033Z,101510.16
2023-04-19T02:55:11.874Z,101522.66
2023-04-19T02:57:39.890Z,101526.38
2023-04-19T03:00:11.675Z,101457.50
2023-04-19T03:02:44.131Z,101530.19
2023-04-19T03:05:13.787Z,101525.06
2023-04-19T03:07:44.314Z,101526.19
2023-04-19T03:10:12.630Z,101528.72
2023-04-19T03:12:40.614Z,101513.88
2023-04-19T03:15:09.750Z,101523.44
2023-04-19T03:17:37.845Z,101530.72
2023-04-19T03:20:11.000Z,101524.44
2023-04-19T03:22:40.656Z,101522.69
2023-04-19T03:25:12.417Z,101525.25
2023-04-19T03:27:41.859Z,101513.75
2023-04-19T03:30:14.175Z,101519.16
2023-04-19T03:32:43.925Z,101505.66
2023-04-19T03:35:13.666Z,101522.75
2023-04-19T03:37:43.455Z,101518.22
2023-04-19T03:40:12.022Z,101516.47
2023-04-19T03:42:39.949Z,101482.81
2023-04-19T03:45:13.243Z,101506.72
2023-04-19T03:47:46.710Z,101510.31
2023-04-19T03:50:14.636Z,101493.66
2023-04-19T03:52:47.420Z,101494.50
2023-04-19T03:55:16.021Z,101470.63
2023-04-19T03:57:44.251Z,101506.03
2023-04-19T04:00:19.901Z,101475.00
2023-04-19T04:02:54.654Z,101466.97
2023-04-19T04:05:23.882Z,101497.13
2023-04-19T04:07:53.171Z,101520.09
2023-04-19T04:10:22.058Z,101514.91
2023-04-19T04:12:49.924Z,101506.97
2023-04-19T04:15:24.853Z,101505.13
2023-04-19T04:17:54.699Z,101489.16
2023-04-19T04:20:23.022Z,101510.44
2023-04-19T04:22:56.908Z,101514.94
2023-04-19T04:25:25.886Z,101523.09
2023-04-19T04:27:54.675Z,101523.94
2023-04-19T04:30:26.610Z,101522.13
2023-04-19T04:32:59.011Z,101523.09
2023-04-19T04:35:29.958Z,101524.09
2023-04-19T04:38:17.608Z,101522.38
2023-04-19T04:40:53.637Z,101517.06
2023-04-19T04:43:22.595Z,101533.03
2023-04-19T04:45:50.824Z,101531.19
2023-04-19T04:48:19.724Z,101507.28
2023-04-19T04:50:47.591Z,101543.59
2023-04-19T04:53:16.873Z,101546.19
2023-04-19T04:55:46.763Z,101546.13
2023-04-19T04:58:15.363Z,101545.19
2023-04-19T05:01:00.244Z,101530.09
2023-04-19T05:03:29.120Z,101542.47
2023-04-19T05:05:59.694Z,101522.06
2023-04-19T05:08:29.520Z,101501.72
2023-04-19T05:11:09.447Z,101537.16
2023-04-19T05:13:39.028Z,101554.88
2023-04-19T05:16:07.466Z,101553.28
2023-04-19T05:18:36.116Z,101551.63
2023-04-19T05:21:03.999Z,101548.91
2023-04-19T05:23:35.080Z,101553.22
2023-04-19T05:26:03.004Z,101534.38
2023-04-19T05:28:31.180Z,101543.13
2023-04-19T05:31:06.378Z,101540.84
2023-04-19T05:33:43.211Z,101541.84
2023-04-19T05:36:11.515Z,101542.72
2023-04-19T05:38:40.745Z,101531.25
2023-04-19T05:41:08.803Z,101539.16
2023-04-19T05:43:36.581Z,101468.25
2023-04-19T05:46:06.155Z,101526.75
2023-04-19T05:48:34.059Z,101508.16
2023-04-19T05:51:28.304Z,101528.47
2023-04-19T05:54:12.678Z,101537.19
2023-04-19T05:56:42.102Z,101515.19
2023-04-19T05:59:11.482Z,101541.75
2023-04-19T06:01:39.430Z,101535.50
2023-04-19T06:04:07.694Z,101524.72
2023-04-19T06:06:38.083Z,101540.59
2023-04-19T06:09:07.089Z,101520.84
2023-04-19T06:11:43.107Z,101544.47
2023-04-19T06:14:18.244Z,101543.75
2023-04-19T06:16:46.549Z,101544.69
2023-04-19T06:19:14.498Z,101529.56
2023-04-19T06:21:42.452Z,101507.28
2023-04-19T06:24:10.944Z,101529.19
2023-04-19T06:26:40.160Z,101539.09
2023-04-19T06:29:08.016Z,101514.16
2023-04-19T06:31:35.973Z,101538.34
2023-04-19T06:34:03.788Z,101536.47
2023-04-19T06:36:31.660Z,101533.91
2023-04-19T06:38:59.488Z,101532.31
2023-04-19T06:41:27.379Z,101512.53
2023-04-19T06:43:56.570Z,101530.84
2023-04-19T06:46:24.488Z,101529.69
2023-04-19T06:48:52.364Z,101534.13
2023-04-19T06:51:20.225Z,101547.75
2023-04-19T06:53:48.061Z,101520.91
2023-04-19T06:56:15.951Z,101537.16
2023-04-19T06:58:43.818Z,101543.56
2023-04-19T07:01:13.155Z,101538.34
2023-04-19T07:03:41.814Z,101537.69
2023-04-19T07:06:09.877Z,101534.06
2023-04-19T07:08:49.192Z,101522.75
2023-04-19T07:11:20.219Z,101515.81
2023-04-19T07:13:49.067Z,101520.91
2023-04-19T07:16:18.366Z,101518.56
2023-04-19T07:18:46.359Z,101519.34
2023-04-19T07:21:14.278Z,101522.28
2023-04-19T07:23:42.304Z,101516.44
2023-04-19T07:26:10.285Z,101507.81
2023-04-19T07:28:40.576Z,101503.47
2023-04-19T07:31:08.492Z,101487.16
2023-04-19T07:33:37.726Z,101504.28
2023-04-19T07:36:06.663Z,101474.84
2023-04-19T07:38:34.499Z,101498.63
2023-04-19T07:41:02.337Z,101474.66
2023-04-19T07:43:31.123Z,101486.63
2023-04-19T07:45:58.907Z,101489.59
2023-04-19T07:48:26.843Z,101347.66
2023-04-19T07:50:56.223Z,101478.72
2023-04-19T07:53:24.062Z,101476.97
2023-04-19T07:55:51.816Z,101478.53
2023-04-19T07:58:19.712Z,101473.38
2023-04-19T08:00:47.551Z,101491.22
2023-04-19T08:03:15.582Z,101475.88
2023-04-19T08:05:43.592Z,101476.44
2023-04-19T08:08:12.841Z,101470.53
2023-04-19T08:10:40.624Z,101460.38
2023-04-19T08:13:08.814Z,101463.06
2023-04-19T08:16:20.354Z,101430.50
2023-04-19T08:18:25.589Z,101434.94
2023-04-19T08:20:53.859Z,101435.81
2023-04-19T08:23:29.501Z,101457.00
2023-04-19T08:26:02.692Z,101457.63
2023-04-19T08:28:30.656Z,101371.88
2023-04-19T08:30:59.990Z,101464.94
2023-04-19T08:33:29.455Z,101468.47
2023-04-19T08:35:57.316Z,101462.97
2023-04-19T08:38:26.600Z,101461.31
2023-04-19T08:40:55.979Z,101459.91
2023-04-19T08:43:28.689Z,101447.41
2023-04-19T08:45:58.258Z,101449.47
2023-04-19T08:48:28.471Z,101454.06
2023-04-19T08:51:05.031Z,101452.84
2023-04-19T08:53:36.625Z,101415.63
2023-04-19T09:01:07.227Z,101429.97
2023-04-19T09:03:47.252Z,101439.09
2023-04-19T09:06:19.411Z,101438.38
2023-04-19T09:08:48.773Z,101447.13
2023-04-19T09:11:16.877Z,101453.84
2023-04-19T09:13:45.029Z,101445.00
2023-04-19T09:16:26.074Z,101381.28
2023-04-19T09:19:08.613Z,101358.38
2023-04-19T09:21:47.515Z,101448.78
2023-04-19T09:24:16.649Z,101442.22
2023-04-19T09:26:55.386Z,101436.31
2023-04-19T09:29:24.262Z,101435.47
2023-04-19T09:31:59.969Z,101436.56
2023-04-19T09:34:30.558Z,101419.97
2023-04-19T09:37:11.040Z,101437.22
2023-04-19T09:39:44.339Z,101433.97
2023-04-19T09:42:12.132Z,101442.59
2023-04-19T09:47:24.265Z,101425.66
2023-04-19T09:50:21.922Z,101417.25
2023-04-19T09:52:53.281Z,101421.75
2023-04-19T09:55:27.767Z,101400.00
2023-04-19T09:57:56.494Z,101199.25
2023-04-19T10:00:24.733Z,101412.81
2023-04-19T10:02:57.969Z,101397.16
2023-04-19T10:05:26.824Z,101394.59
2023-04-19T10:08:00.117Z,101368.97
2023-04-19T10:13:18.146Z,101385.41
2023-04-19T10:15:53.653Z,101317.97
2023-04-19T10:18:24.128Z,101354.66
2023-04-19T10:20:56.404Z,101374.00
2023-04-19T10:23:24.574Z,101364.53
2023-04-19T10:25:57.438Z,101379.28
2023-04-19T10:28:25.691Z,101360.81
2023-04-19T10:30:54.714Z,101360.34
2023-04-19T10:33:27.172Z,101318.94
2023-04-19T10:35:57.291Z,101363.50
2023-04-19T10:38:38.708Z,101363.59
2023-04-19T10:41:17.076Z,101354.69
2023-04-19T10:43:47.043Z,101360.81
2023-04-19T10:46:17.736Z,101360.56
2023-04-19T10:48:56.154Z,101217.25
2023-04-19T10:51:27.832Z,101354.56
2023-04-19T10:53:58.397Z,101353.56
2023-04-19T10:57:00.436Z,101344.53
2023-04-19T10:59:31.593Z,101300.91
2023-04-19T11:02:01.744Z,101324.38
2023-04-19T11:05:02.473Z,101323.50
2023-04-19T11:07:37.270Z,101322.63
2023-04-19T11:10:06.674Z,101306.94
2023-04-19T11:12:36.071Z,101295.34
2023-04-19T11:15:03.945Z,101279.84
2023-04-19T11:17:32.848Z,101285.31
2023-04-19T11:20:02.185Z,101269.38
2023-04-19T11:22:33.900Z,101285.09
2023-04-19T11:25:09.967Z,101276.28
2023-04-19T11:27:39.940Z,101267.19
2023-04-19T11:30:10.533Z,101208.47
2023-04-19T11:32:39.039Z,101259.75
2023-04-19T11:35:08.938Z,101251.84
2023-04-19T11:37:38.059Z,101239.38
2023-04-19T11:40:07.822Z,101239.38
2023-04-19T11:42:35.865Z,101229.94
2023-04-19T11:45:09.056Z,101226.38
2023-04-19T11:47:49.035Z,101199.28
2023-04-19T11:50:33.243Z,101232.50
2023-04-19T11:53:01.631Z,101211.69
2023-04-19T11:55:34.668Z,101222.13
2023-04-19T11:58:02.533Z,101215.72
2023-04-19T12:00:31.747Z,101203.78
2023-04-19T12:03:01.754Z,101186.09
2023-04-19T12:05:30.146Z,101205.34
2023-04-19T12:08:02.241Z,101198.63
2023-04-19T12:10:30.858Z,101196.16
2023-04-19T12:12:58.843Z,101188.16
2023-04-19T12:15:46.295Z,101197.47
2023-04-19T12:18:14.211Z,101086.75
2023-04-19T12:20:46.346Z,101152.41
2023-04-19T12:23:15.773Z,101171.84
2023-04-19T12:25:44.770Z,101168.69
2023-04-19T12:28:12.649Z,101161.00
2023-04-19T12:30:41.141Z,101152.00
2023-04-19T12:33:10.642Z,101153.13
2023-04-19T12:35:39.122Z,101171.53
2023-04-19T12:38:06.957Z,101160.34
2023-04-19T12:40:35.136Z,101124.78
2023-04-19T12:43:02.994Z,101158.69
2023-04-19T12:45:30.920Z,101147.75
2023-04-19T12:47:58.694Z,101148.22
2023-04-19T12:50:27.953Z,101151.88
2023-04-19T12:52:55.879Z,101133.66
2023-04-19T12:55:24.004Z,101046.22
2023-04-19T12:57:51.887Z,101138.22
2023-04-19T13:00:19.660Z,101130.91
2023-04-19T13:02:48.353Z,101129.59
2023-04-19T13:05:16.496Z,101132.66
2023-04-19T13:07:45.687Z,101131.19
2023-04-19T13:10:13.569Z,101134.34
2023-04-19T13:12:41.479Z,101100.94
2023-04-19T13:15:10.765Z,101122.41
2023-04-19T13:17:38.700Z,101109.22
2023-04-19T13:20:07.930Z,101091.22
2023-04-19T13:22:35.792Z,101091.22
2023-04-19T13:25:05.179Z,101112.41
2023-04-19T13:27:33.005Z,101090.97
2023-04-19T13:30:00.933Z,101058.22
2023-04-19T13:32:28.753Z,101109.81
2023-04-19T13:34:56.528Z,101071.69
2023-04-19T13:37:24.387Z,101098.00
2023-04-19T13:39:52.451Z,101081.94
2023-04-19T13:42:23.263Z,101094.19
2023-04-19T13:44:51.362Z,101038.00
2023-04-19T13:47:19.105Z,101080.34
2023-04-19T13:49:51.978Z,101092.88
2023-04-19T13:52:19.820Z,101090.56
2023-04-19T13:54:47.598Z,101084.03
2023-04-19T13:57:15.548Z,101051.75
2023-04-19T13:59:44.670Z,101040.72
2023-04-19T14:02:12.778Z,101065.66
2023-04-19T14:04:40.641Z,101062.41
2023-04-19T14:07:08.428Z,101058.38
2023-04-19T14:09:36.706Z,101075.94
2023-04-19T14:12:05.195Z,101062.66
2023-04-19T14:14:33.175Z,101068.75
2023-04-19T14:17:02.349Z,101057.53
2023-04-19T14:19:30.111Z,101063.72
2023-04-19T14:21:58.126Z,101035.47
2023-04-19T14:24:26.066Z,101059.53
2023-04-19T14:27:09.130Z,101038.19
2023-04-19T14:29:38.586Z,101025.22
2023-04-19T14:32:24.181Z,101056.16
2023-04-19T14:34:54.535Z,101052.28
2023-04-19T14:37:24.217Z,101051.50
2023-04-19T14:39:52.292Z,101046.06
2023-04-19T14:42:22.557Z,101053.66
2023-04-19T14:44:51.999Z,101037.81
2023-04-19T14:47:22.015Z,101056.94
2023-04-19T14:49:49.932Z,101056.19
2023-04-19T14:52:18.234Z,101057.72
2023-04-19T14:54:46.114Z,101055.97
2023-04-19T14:57:14.349Z,101049.53
2023-04-19T14:59:42.236Z,101062.53
2023-04-19T15:02:10.910Z,101048.72
2023-04-19T15:04:41.216Z,101026.41
2023-04-19T15:07:09.670Z,101052.47
2023-04-19T15:09:37.439Z,101051.81
2023-04-19T15:12:05.827Z,101057.63
2023-04-19T15:14:33.615Z,101044.94
2023-04-19T15:17:01.908Z,101040.13
2023-04-19T15:19:30.926Z,101031.59
2023-04-19T15:22:00.074Z,101036.34
2023-04-19T15:24:27.798Z,101015.19
2023-04-19T15:26:56.470Z,101035.53
2023-04-19T15:29:24.289Z,101026.44
2023-04-19T15:31:52.164Z,101040.22
2023-04-19T15:34:20.201Z,101041.09
2023-04-19T15:36:47.932Z,101027.31
2023-04-19T15:39:17.258Z,101034.00
2023-04-19T15:41:45.217Z,101037.22
2023-04-19T15:44:12.996Z,101038.00
2023-04-19T15:46:41.349Z,101048.84
2023-04-19T15:49:09.241Z,101041.06
2023-04-19T15:51:38.249Z,101030.56
2023-04-19T15:54:06.283Z,101037.13
2023-04-19T15:56:35.479Z,101031.97
2023-04-19T15:59:03.260Z,101038.69
2023-04-19T16:01:31.218Z,101013.56
2023-04-19T16:03:59.244Z,101029.75
2023-04-19T16:06:27.335Z,101048.63
2023-04-19T16:08:55.173Z,101035.22
2023-04-19T16:11:23.091Z,101025.75
2023-04-19T16:13:52.366Z,101012.75
2023-04-19T16:16:20.251Z,101042.41
2023-04-19T16:18:48.160Z,101040.34
2023-04-19T16:21:15.961Z,101043.34
2023-04-19T16:23:43.771Z,101051.84
2023-04-19T16:26:11.567Z,101043.94
2023-04-19T16:28:39.349Z,101048.88
2023-04-19T16:31:08.534Z,101055.03
2023-04-19T16:33:36.375Z,101042.72
2023-04-19T16:36:04.397Z,101032.34
2023-04-19T16:38:32.230Z,101032.28
2023-04-19T16:41:02.030Z,101035.38
2023-04-19T16:43:29.969Z,101027.22
2023-04-19T16:45:57.877Z,101040.81
2023-04-19T16:48:27.571Z,101013.31
2023-04-19T16:50:55.420Z,101023.84
2023-04-19T16:53:23.304Z,101039.19
2023-04-19T16:55:51.069Z,101034.06
2023-04-19T16:58:18.840Z,101022.34
2023-04-19T17:00:46.699Z,101025.84
2023-04-19T17:03:14.935Z,101023.41
2023-04-19T17:05:44.197Z,101015.78
2023-04-19T17:08:12.162Z,101022.44
2023-04-19T17:10:39.978Z,100915.72
2023-04-19T17:13:07.826Z,101018.44
2023-04-19T17:15:35.757Z,101017.22
2023-04-19T17:18:04.011Z,101018.91
2023-04-19T17:20:31.864Z,100950.16
2023-04-19T17:23:01.055Z,101010.22
2023-04-19T17:25:28.986Z,101011.53
2023-04-19T17:27:56.745Z,101009.16
2023-04-19T17:30:24.560Z,101007.19
2023-04-19T17:32:52.651Z,101020.13
2023-04-19T17:35:20.498Z,101009.81
2023-04-19T17:37:48.397Z,100954.81
2023-04-19T17:40:17.537Z,101006.41
2023-04-19T17:42:45.519Z,101010.00
2023-04-19T17:45:13.375Z,101014.97
2023-04-19T17:47:41.829Z,101015.78
2023-04-19T17:50:12.057Z,101010.13
2023-04-19T17:52:40.442Z,101013.75
2023-04-19T17:55:08.894Z,101014.63
2023-04-19T17:57:38.152Z,101011.56
2023-04-19T18:00:10.906Z,100988.94
2023-04-19T18:02:38.894Z,100996.44
2023-04-19T18:05:07.421Z,101012.75
2023-04-19T18:07:36.754Z,100971.34
2023-04-19T18:10:05.345Z,101009.81
2023-04-19T18:12:33.145Z,101000.25
2023-04-19T18:15:02.448Z,101003.56
2023-04-19T18:17:31.261Z,101001.78
2023-04-19T18:19:59.098Z,101001.13
2023-04-19T18:22:26.921Z,101007.63
2023-04-19T18:24:54.710Z,101007.53
2023-04-19T18:27:22.500Z,100997.22
2023-04-19T18:29:52.077Z,101011.13
2023-04-19T18:32:21.883Z,101005.63
2023-04-19T18:34:49.830Z,101007.59
2023-04-19T18:37:18.120Z,101017.03
2023-04-19T18:39:46.042Z,101013.50
2023-04-19T18:42:13.813Z,101018.78
2023-04-19T18:47:12.368Z,101017.16
2023-04-19T18:49:45.760Z,101018.78
2023-04-19T18:52:20.795Z,101024.63
2023-04-19T18:54:48.621Z,101032.25
2023-04-19T18:59:47.129Z,101026.34
2023-04-19T19:02:15.003Z,101034.44
2023-04-19T19:07:34.368Z,101035.63
2023-04-19T19:10:15.990Z,101031.59
2023-04-19T19:12:46.080Z,101045.69
2023-04-19T19:15:14.734Z,100971.88
2023-04-19T19:17:43.116Z,101042.88
2023-04-19T19:20:13.094Z,101039.53
2023-04-19T19:22:40.959Z,101043.81
2023-04-19T19:25:09.486Z,101011.75
2023-04-19T19:27:37.763Z,101026.00
2023-04-19T19:30:07.734Z,101019.31
2023-04-19T19:32:36.142Z,101023.81
2023-04-19T19:35:08.138Z,101013.69
2023-04-19T19:37:38.466Z,101028.31
2023-04-19T19:40:10.796Z,101020.88
2023-04-19T19:42:40.561Z,101001.28
2023-04-19T19:45:09.823Z,101012.66
2023-04-19T19:47:43.429Z,101011.91
2023-04-19T19:51:01.110Z,101011.78
2023-04-19T19:53:03.465Z,101010.06
2023-04-19T19:55:31.279Z,101011.50
2023-04-19T20:00:44.122Z,101021.78
2023-04-19T20:03:14.447Z,101015.84
2023-04-19T20:05:42.645Z,101011.09
2023-04-19T20:08:13.649Z,101007.59
2023-04-19T20:10:43.399Z,100985.59
2023-04-19T20:13:12.870Z,101005.34
2023-04-19T20:15:41.206Z,101014.78
2023-04-19T20:18:09.229Z,101005.53
2023-04-19T20:20:37.567Z,101001.59
2023-04-19T20:23:05.882Z,101006.28
2023-04-19T20:25:35.144Z,100988.06
2023-04-19T20:28:04.709Z,101003.56
2023-04-19T20:30:32.580Z,101002.13
2023-04-19T20:33:01.195Z,101007.56
2023-04-19T20:35:29.363Z,101004.41
2023-04-19T20:38:02.320Z,101015.13
2023-04-19T20:40:32.038Z,100994.84
2023-04-19T20:43:01.603Z,100991.66
2023-04-19T20:45:29.890Z,100993.72
2023-04-19T20:47:58.467Z,100967.16
2023-04-19T20:50:26.626Z,100984.81
2023-04-19T20:52:54.405Z,100985.69
2023-04-19T20:55:22.268Z,100951.25
2023-04-19T20:57:50.078Z,100974.47
2023-04-19T21:00:20.298Z,100964.41
2023-04-19T21:02:49.468Z,100967.16
2023-04-19T21:05:17.453Z,100970.09
2023-04-19T21:07:45.208Z,100971.66
2023-04-19T21:10:13.738Z,100951.97
2023-04-19T21:12:41.515Z,100967.53
2023-04-19T21:15:09.919Z,100972.34
2023-04-19T21:17:39.113Z,100993.84
2023-04-19T21:20:12.223Z,101001.03
2023-04-19T21:22:40.188Z,100992.31
2023-04-19T21:25:09.127Z,101011.59
2023-04-19T21:27:37.574Z,100995.19
2023-04-19T21:30:06.074Z,100992.84
2023-04-19T21:32:34.338Z,100989.97
2023-04-19T21:35:04.342Z,100967.81
2023-04-19T21:37:32.125Z,100979.50
2023-04-19T21:39:59.967Z,100985.31
2023-04-19T21:42:27.698Z,100973.91
2023-04-19T21:44:55.523Z,100969.91
2023-04-19T21:47:23.286Z,100968.28
2023-04-19T21:49:51.299Z,100962.78
2023-04-19T21:52:20.586Z,100957.53
2023-04-19T21:54:48.773Z,100928.31
2023-04-19T21:57:17.617Z,100945.28
2023-04-19T21:59:45.386Z,100946.56
2023-04-19T22:02:13.220Z,100947.56
2023-04-19T22:04:41.681Z,100940.78
2023-04-19T22:07:11.348Z,100934.34
2023-04-19T22:09:40.601Z,100922.72
2023-04-19T22:12:09.296Z,100921.94
2023-04-19T22:14:37.370Z,100917.22
2023-04-19T22:17:06.402Z,100789.94
2023-04-19T22:19:34.167Z,100880.00
2023-04-19T22:22:02.051Z,100907.94
2023-04-19T22:24:29.875Z,100903.94
2023-04-19T22:26:59.007Z,100884.75
2023-04-19T22:29:26.756Z,100888.25
2023-04-19T22:31:54.632Z,100883.81
2023-04-19T22:34:22.767Z,100871.47
2023-04-19T22:36:50.751Z,100882.34
2023-04-19T22:39:18.771Z,100880.44
2023-04-19T22:41:46.644Z,100813.09
2023-04-19T22:44:15.823Z,100870.25
2023-04-19T22:46:43.812Z,100868.53
2023-04-19T22:49:11.626Z,100868.44
2023-04-19T22:51:39.490Z,100727.78
2023-04-19T22:54:07.234Z,100860.41
2023-04-19T22:56:35.053Z,100858.22
2023-04-19T22:59:02.834Z,100847.81
2023-04-19T23:01:32.069Z,100834.66
2023-04-19T23:03:59.876Z,100832.94
2023-04-19T23:06:28.859Z,100811.06
2023-04-19T23:08:56.697Z,100833.63
2023-04-19T23:11:25.085Z,100826.34
2023-04-19T23:13:54.032Z,100826.72
2023-04-19T23:16:24.122Z,100821.88
2023-04-19T23:18:54.386Z,100818.97
2023-04-19T23:21:22.233Z,100815.16
2023-04-19T23:23:51.318Z,100818.50
2023-04-19T23:26:19.164Z,100795.63
2023-04-19T23:28:46.927Z,100809.66
2023-04-19T23:31:15.077Z,100801.81
2023-04-19T23:33:42.984Z,100798.31
2023-04-19T23:36:12.201Z,100796.66
2023-04-19T23:38:39.972Z,100713.09
2023-04-19T23:41:10.801Z,100798.84
2023-04-19T23:43:38.781Z,100756.91
2023-04-19T23:46:07.492Z,100809.47
2023-04-19T23:48:35.885Z,100791.63
2023-04-19T23:51:03.632Z,100797.06
2023-04-19T23:53:32.710Z,100805.19
2023-04-19T23:56:00.525Z,100794.03
2023-04-19T23:58:28.291Z,100802.56
